sensor_id;sensor_type;location;lat;lon;timestamp;temperature;humidity
43049;DHT22;28673;44.412;11.918;2023-03-04T00:00:36;6.00;99.90
43049;DHT22;28673;44.412;11.918;2023-03-04T00:03:08;6.00;99.90
43049;DHT22;28673;44.412;11.918;2023-03-04T00:05:36;6.00;99.90
43049;DHT22;28673;44.412;11.918;2023-03-04T00:08:02;6.00;99.90
43049;DHT22;28673;44.412;11.918;2023-03-04T00:10:28;6.00;99.90
43049;DHT22;28673;44.412;11.918;2023-03-04T00:12:54;5.90;99.90
43049;DHT22;28673;44.412;11.918;2023-03-04T00:15:20;5.90;99.90
43049;DHT22;28673;44.412;11.918;2023-03-04T00:17:46;5.90;99.90
43049;DHT22;28673;44.412;11.918;2023-03-04T00:20:12;5.90;99.90
43049;DHT22;28673;44.412;11.918;2023-03-04T00:22:38;5.80;99.90
43049;DHT22;28673;44.412;11.918;2023-03-04T00:25:04;5.80;99.90
43049;DHT22;28673;44.412;11.918;2023-03-04T00:27:30;5.80;99.90
43049;DHT22;28673;44.412;11.918;2023-03-04T00:29:56;5.70;99.90
43049;DHT22;28673;44.412;11.918;2023-03-04T00:32:22;5.70;99.90
43049;DHT22;28673;44.412;11.918;2023-03-04T00:34:48;5.70;99.90
43049;DHT22;28673;44.412;11.918;2023-03-04T00:37:13;5.70;99.90
43049;DHT22;28673;44.412;11.918;2023-03-04T00:39:39;5.70;99.90
43049;DHT22;28673;44.412;11.918;2023-03-04T00:42:05;5.60;99.90
43049;DHT22;28673;44.412;11.918;2023-03-04T00:44:31;5.60;99.90
43049;DHT22;28673;44.412;11.918;2023-03-04T00:46:58;5.60;99.90
43049;DHT22;28673;44.412;11.918;2023-03-04T00:49:24;5.60;99.90
43049;DHT22;28673;44.412;11.918;2023-03-04T00:51:50;5.60;99.90
43049;DHT22;28673;44.412;11.918;2023-03-04T00:54:16;5.60;99.90
43049;DHT22;28673;44.412;11.918;2023-03-04T00:56:42;5.60;99.90
43049;DHT22;28673;44.412;11.918;2023-03-04T00:59:08;5.60;99.90
43049;DHT22;28673;44.412;11.918;2023-03-04T01:01:34;5.60;99.90
43049;DHT22;28673;44.412;11.918;2023-03-04T01:04:00;5.60;99.90
43049;DHT22;28673;44.412;11.918;2023-03-04T01:06:26;5.60;99.90
43049;DHT22;28673;44.412;11.918;2023-03-04T01:08:52;5.50;99.90
43049;DHT22;28673;44.412;11.918;2023-03-04T01:11:18;5.50;99.90
43049;DHT22;28673;44.412;11.918;2023-03-04T01:13:44;5.50;99.90
43049;DHT22;28673;44.412;11.918;2023-03-04T01:16:10;5.50;99.90
43049;DHT22;28673;44.412;11.918;2023-03-04T01:18:37;5.50;99.90
43049;DHT22;28673;44.412;11.918;2023-03-04T01:21:03;5.60;99.90
43049;DHT22;28673;44.412;11.918;2023-03-04T01:23:29;5.60;99.90
43049;DHT22;28673;44.412;11.918;2023-03-04T01:25:55;5.50;99.90
43049;DHT22;28673;44.412;11.918;2023-03-04T01:28:21;5.60;99.90
43049;DHT22;28673;44.412;11.918;2023-03-04T01:30:47;5.60;99.90
43049;DHT22;28673;44.412;11.918;2023-03-04T01:33:12;5.60;99.90
43049;DHT22;28673;44.412;11.918;2023-03-04T01:35:38;5.60;99.90
43049;DHT22;28673;44.412;11.918;2023-03-04T01:38:04;5.60;99.90
43049;DHT22;28673;44.412;11.918;2023-03-04T01:40:31;5.60;99.90
43049;DHT22;28673;44.412;11.918;2023-03-04T01:42:57;5.50;99.90
43049;DHT22;28673;44.412;11.918;2023-03-04T01:45:23;5.50;99.90
43049;DHT22;28673;44.412;11.918;2023-03-04T01:47:50;5.50;99.90
43049;DHT22;28673;44.412;11.918;2023-03-04T01:50:27;5.40;99.90
43049;DHT22;28673;44.412;11.918;2023-03-04T01:52:54;5.40;99.90
43049;DHT22;28673;44.412;11.918;2023-03-04T01:55:22;5.30;99.90
43049;DHT22;28673;44.412;11.918;2023-03-04T01:57:49;5.30;99.90
43049;DHT22;28673;44.412;11.918;2023-03-04T02:00:25;5.20;99.90
43049;DHT22;28673;44.412;11.918;2023-03-04T02:03:05;5.20;99.90
43049;DHT22;28673;44.412;11.918;2023-03-04T02:05:34;5.10;99.90
43049;DHT22;28673;44.412;11.918;2023-03-04T02:08:01;5.10;99.90
43049;DHT22;28673;44.412;11.918;2023-03-04T02:10:28;5.10;99.90
43049;DHT22;28673;44.412;11.918;2023-03-04T02:12:54;5.10;99.90
43049;DHT22;28673;44.412;11.918;2023-03-04T02:15:20;5.10;99.90
43049;DHT22;28673;44.412;11.918;2023-03-04T02:17:46;5.10;99.90
43049;DHT22;28673;44.412;11.918;2023-03-04T02:23:19;5.10;99.90
43049;DHT22;28673;44.412;11.918;2023-03-04T02:26:13;5.00;99.90
43049;DHT22;28673;44.412;11.918;2023-03-04T02:28:40;5.00;99.90
43049;DHT22;28673;44.412;11.918;2023-03-04T02:31:08;5.00;99.90
43049;DHT22;28673;44.412;11.918;2023-03-04T02:33:37;5.00;99.90
43049;DHT22;28673;44.412;11.918;2023-03-04T02:36:03;5.00;99.90
43049;DHT22;28673;44.412;11.918;2023-03-04T02:38:29;5.10;99.90
43049;DHT22;28673;44.412;11.918;2023-03-04T02:40:55;5.10;99.90
43049;DHT22;28673;44.412;11.918;2023-03-04T02:43:22;5.00;99.90
43049;DHT22;28673;44.412;11.918;2023-03-04T02:45:49;5.10;99.90
43049;DHT22;28673;44.412;11.918;2023-03-04T02:48:18;5.10;99.90
43049;DHT22;28673;44.412;11.918;2023-03-04T02:50:50;5.00;99.90
43049;DHT22;28673;44.412;11.918;2023-03-04T02:53:17;5.00;99.90
43049;DHT22;28673;44.412;11.918;2023-03-04T02:55:45;5.00;99.90
43049;DHT22;28673;44.412;11.918;2023-03-04T02:58:12;5.00;99.90
43049;DHT22;28673;44.412;11.918;2023-03-04T03:00:39;5.00;99.90
43049;DHT22;28673;44.412;11.918;2023-03-04T03:03:06;5.00;99.90
43049;DHT22;28673;44.412;11.918;2023-03-04T03:05:35;5.00;99.90
43049;DHT22;28673;44.412;11.918;2023-03-04T03:08:02;5.00;99.90
43049;DHT22;28673;44.412;11.918;2023-03-04T03:10:29;5.00;99.90
43049;DHT22;28673;44.412;11.918;2023-03-04T03:12:55;5.00;99.90
43049;DHT22;28673;44.412;11.918;2023-03-04T03:15:21;5.00;99.90
43049;DHT22;28673;44.412;11.918;2023-03-04T03:17:47;5.00;99.90
43049;DHT22;28673;44.412;11.918;2023-03-04T03:20:13;5.00;99.90
43049;DHT22;28673;44.412;11.918;2023-03-04T03:22:40;5.00;99.90
43049;DHT22;28673;44.412;11.918;2023-03-04T03:25:07;5.00;99.90
43049;DHT22;28673;44.412;11.918;2023-03-04T03:27:33;5.00;99.90
43049;DHT22;28673;44.412;11.918;2023-03-04T03:29:59;5.00;99.90
43049;DHT22;28673;44.412;11.918;2023-03-04T03:32:26;5.00;99.90
43049;DHT22;28673;44.412;11.918;2023-03-04T03:34:52;4.90;99.90
43049;DHT22;28673;44.412;11.918;2023-03-04T03:37:18;4.90;99.90
43049;DHT22;28673;44.412;11.918;2023-03-04T03:39:44;4.90;99.90
43049;DHT22;28673;44.412;11.918;2023-03-04T03:42:10;4.90;99.90
43049;DHT22;28673;44.412;11.918;2023-03-04T03:44:36;4.90;99.90
43049;DHT22;28673;44.412;11.918;2023-03-04T03:47:02;4.90;99.90
43049;DHT22;28673;44.412;11.918;2023-03-04T03:49:28;4.80;99.90
43049;DHT22;28673;44.412;11.918;2023-03-04T03:51:54;4.80;99.90
43049;DHT22;28673;44.412;11.918;2023-03-04T03:54:20;4.80;99.90
43049;DHT22;28673;44.412;11.918;2023-03-04T03:56:46;4.80;99.90
43049;DHT22;28673;44.412;11.918;2023-03-04T03:59:11;4.80;99.90
43049;DHT22;28673;44.412;11.918;2023-03-04T04:01:37;4.70;99.90
43049;DHT22;28673;44.412;11.918;2023-03-04T04:04:03;4.70;99.90
43049;DHT22;28673;44.412;11.918;2023-03-04T04:06:29;4.70;99.90
43049;DHT22;28673;44.412;11.918;2023-03-04T04:08:55;4.70;99.90
43049;DHT22;28673;44.412;11.918;2023-03-04T04:11:21;4.60;99.90
43049;DHT22;28673;44.412;11.918;2023-03-04T04:13:47;4.60;99.90
43049;DHT22;28673;44.412;11.918;2023-03-04T04:16:13;4.60;99.90
43049;DHT22;28673;44.412;11.918;2023-03-04T04:18:38;4.60;99.90
43049;DHT22;28673;44.412;11.918;2023-03-04T04:21:05;4.60;99.90
43049;DHT22;28673;44.412;11.918;2023-03-04T04:23:31;4.50;99.90
43049;DHT22;28673;44.412;11.918;2023-03-04T04:25:57;4.40;99.90
43049;DHT22;28673;44.412;11.918;2023-03-04T04:28:23;4.40;99.90
43049;DHT22;28673;44.412;11.918;2023-03-04T04:30:50;4.30;99.90
43049;DHT22;28673;44.412;11.918;2023-03-04T04:33:16;4.30;99.90
43049;DHT22;28673;44.412;11.918;2023-03-04T04:35:42;4.20;99.90
43049;DHT22;28673;44.412;11.918;2023-03-04T04:38:08;4.20;99.90
43049;DHT22;28673;44.412;11.918;2023-03-04T04:40:35;4.20;99.90
43049;DHT22;28673;44.412;11.918;2023-03-04T04:43:01;4.20;99.90
43049;DHT22;28673;44.412;11.918;2023-03-04T04:45:26;4.20;99.90
43049;DHT22;28673;44.412;11.918;2023-03-04T04:47:53;4.20;99.90
43049;DHT22;28673;44.412;11.918;2023-03-04T04:50:23;4.20;99.90
43049;DHT22;28673;44.412;11.918;2023-03-04T04:52:48;4.20;99.90
43049;DHT22;28673;44.412;11.918;2023-03-04T04:55:14;4.20;99.90
43049;DHT22;28673;44.412;11.918;2023-03-04T04:57:40;4.20;99.90
43049;DHT22;28673;44.412;11.918;2023-03-04T05:00:09;4.20;99.90
43049;DHT22;28673;44.412;11.918;2023-03-04T05:02:35;4.20;99.90
43049;DHT22;28673;44.412;11.918;2023-03-04T05:05:03;4.10;99.90
43049;DHT22;28673;44.412;11.918;2023-03-04T05:07:29;4.10;99.90
43049;DHT22;28673;44.412;11.918;2023-03-04T05:09:55;4.10;99.90
43049;DHT22;28673;44.412;11.918;2023-03-04T05:12:21;4.10;99.90
43049;DHT22;28673;44.412;11.918;2023-03-04T05:14:46;4.10;99.90
43049;DHT22;28673;44.412;11.918;2023-03-04T05:17:12;4.10;99.90
43049;DHT22;28673;44.412;11.918;2023-03-04T05:19:38;4.20;99.90
43049;DHT22;28673;44.412;11.918;2023-03-04T05:22:04;4.20;99.90
43049;DHT22;28673;44.412;11.918;2023-03-04T05:24:30;4.20;99.90
43049;DHT22;28673;44.412;11.918;2023-03-04T05:26:55;4.10;99.90
43049;DHT22;28673;44.412;11.918;2023-03-04T05:29:21;4.10;99.90
43049;DHT22;28673;44.412;11.918;2023-03-04T05:31:47;4.00;99.90
43049;DHT22;28673;44.412;11.918;2023-03-04T05:34:13;4.00;99.90
43049;DHT22;28673;44.412;11.918;2023-03-04T05:36:39;3.90;99.90
43049;DHT22;28673;44.412;11.918;2023-03-04T05:39:04;3.90;99.90
43049;DHT22;28673;44.412;11.918;2023-03-04T05:41:30;3.90;99.90
43049;DHT22;28673;44.412;11.918;2023-03-04T05:43:56;3.90;99.90
43049;DHT22;28673;44.412;11.918;2023-03-04T05:46:22;3.90;99.90
43049;DHT22;28673;44.412;11.918;2023-03-04T05:48:51;3.80;99.90
43049;DHT22;28673;44.412;11.918;2023-03-04T05:51:17;3.80;99.90
43049;DHT22;28673;44.412;11.918;2023-03-04T05:53:43;3.70;99.90
43049;DHT22;28673;44.412;11.918;2023-03-04T05:56:14;3.70;99.90
43049;DHT22;28673;44.412;11.918;2023-03-04T05:58:41;3.70;99.90
43049;DHT22;28673;44.412;11.918;2023-03-04T06:01:07;3.80;99.90
43049;DHT22;28673;44.412;11.918;2023-03-04T06:03:33;3.80;99.90
43049;DHT22;28673;44.412;11.918;2023-03-04T06:05:59;3.80;99.90
43049;DHT22;28673;44.412;11.918;2023-03-04T06:08:25;3.80;99.90
43049;DHT22;28673;44.412;11.918;2023-03-04T06:10:54;3.80;99.90
43049;DHT22;28673;44.412;11.918;2023-03-04T06:13:20;3.80;99.90
43049;DHT22;28673;44.412;11.918;2023-03-04T06:15:46;3.80;99.90
43049;DHT22;28673;44.412;11.918;2023-03-04T06:18:12;3.80;99.90
43049;DHT22;28673;44.412;11.918;2023-03-04T06:20:38;3.80;99.90
43049;DHT22;28673;44.412;11.918;2023-03-04T06:23:04;3.90;99.90
43049;DHT22;28673;44.412;11.918;2023-03-04T06:25:30;3.80;99.90
43049;DHT22;28673;44.412;11.918;2023-03-04T06:28:08;3.80;99.90
43049;DHT22;28673;44.412;11.918;2023-03-04T06:30:44;3.80;99.90
43049;DHT22;28673;44.412;11.918;2023-03-04T06:33:31;3.80;99.90
43049;DHT22;28673;44.412;11.918;2023-03-04T06:36:05;3.80;99.90
43049;DHT22;28673;44.412;11.918;2023-03-04T06:38:46;3.80;99.90
43049;DHT22;28673;44.412;11.918;2023-03-04T06:41:12;3.80;99.90
43049;DHT22;28673;44.412;11.918;2023-03-04T06:43:39;3.80;99.90
43049;DHT22;28673;44.412;11.918;2023-03-04T06:46:10;3.80;99.90
43049;DHT22;28673;44.412;11.918;2023-03-04T06:48:45;3.80;99.90
43049;DHT22;28673;44.412;11.918;2023-03-04T06:51:18;3.70;99.90
43049;DHT22;28673;44.412;11.918;2023-03-04T06:53:56;3.70;99.90
43049;DHT22;28673;44.412;11.918;2023-03-04T06:56:31;3.70;99.90
43049;DHT22;28673;44.412;11.918;2023-03-04T06:59:00;3.80;99.90
43049;DHT22;28673;44.412;11.918;2023-03-04T07:01:28;3.80;99.90
43049;DHT22;28673;44.412;11.918;2023-03-04T07:03:59;3.80;99.90
43049;DHT22;28673;44.412;11.918;2023-03-04T07:06:27;3.90;99.90
43049;DHT22;28673;44.412;11.918;2023-03-04T07:08:59;3.90;99.90
43049;DHT22;28673;44.412;11.918;2023-03-04T07:11:32;4.00;99.90
43049;DHT22;28673;44.412;11.918;2023-03-04T07:14:00;4.10;99.90
43049;DHT22;28673;44.412;11.918;2023-03-04T07:16:26;4.10;99.90
43049;DHT22;28673;44.412;11.918;2023-03-04T07:18:53;4.20;99.90
43049;DHT22;28673;44.412;11.918;2023-03-04T07:21:31;4.30;99.90
43049;DHT22;28673;44.412;11.918;2023-03-04T07:23:57;4.30;99.90
43049;DHT22;28673;44.412;11.918;2023-03-04T07:26:23;4.40;99.90
43049;DHT22;28673;44.412;11.918;2023-03-04T07:28:59;4.50;99.90
43049;DHT22;28673;44.412;11.918;2023-03-04T07:31:45;4.50;99.90
43049;DHT22;28673;44.412;11.918;2023-03-04T07:34:18;4.60;99.90
43049;DHT22;28673;44.412;11.918;2023-03-04T07:36:46;4.70;99.90
43049;DHT22;28673;44.412;11.918;2023-03-04T07:39:14;4.80;99.90
43049;DHT22;28673;44.412;11.918;2023-03-04T07:41:44;4.90;99.90
43049;DHT22;28673;44.412;11.918;2023-03-04T07:44:13;5.00;99.90
43049;DHT22;28673;44.412;11.918;2023-03-04T07:46:48;5.10;99.90
43049;DHT22;28673;44.412;11.918;2023-03-04T07:49:17;5.10;99.90
43049;DHT22;28673;44.412;11.918;2023-03-04T07:51:54;5.20;99.90
43049;DHT22;28673;44.412;11.918;2023-03-04T07:54:20;5.30;99.90
43049;DHT22;28673;44.412;11.918;2023-03-04T07:56:46;5.40;99.90
43049;DHT22;28673;44.412;11.918;2023-03-04T07:59:12;5.50;99.90
43049;DHT22;28673;44.412;11.918;2023-03-04T08:01:38;5.60;99.90
43049;DHT22;28673;44.412;11.918;2023-03-04T08:04:06;5.70;99.90
43049;DHT22;28673;44.412;11.918;2023-03-04T08:06:32;5.80;99.90
43049;DHT22;28673;44.412;11.918;2023-03-04T08:09:01;5.90;99.90
43049;DHT22;28673;44.412;11.918;2023-03-04T08:11:28;6.00;99.90
43049;DHT22;28673;44.412;11.918;2023-03-04T08:13:55;6.00;99.90
43049;DHT22;28673;44.412;11.918;2023-03-04T08:16:22;6.10;99.90
43049;DHT22;28673;44.412;11.918;2023-03-04T08:18:53;6.30;99.90
43049;DHT22;28673;44.412;11.918;2023-03-04T08:21:21;6.40;99.90
43049;DHT22;28673;44.412;11.918;2023-03-04T08:23:48;6.50;99.90
43049;DHT22;28673;44.412;11.918;2023-03-04T08:26:25;6.60;99.90
43049;DHT22;28673;44.412;11.918;2023-03-04T08:28:51;6.70;99.90
43049;DHT22;28673;44.412;11.918;2023-03-04T08:31:17;6.80;99.90
43049;DHT22;28673;44.412;11.918;2023-03-04T08:33:44;6.90;99.90
43049;DHT22;28673;44.412;11.918;2023-03-04T08:36:10;7.00;99.90
43049;DHT22;28673;44.412;11.918;2023-03-04T08:38:36;7.10;99.90
43049;DHT22;28673;44.412;11.918;2023-03-04T08:41:02;7.20;99.90
43049;DHT22;28673;44.412;11.918;2023-03-04T08:43:29;7.30;99.90
43049;DHT22;28673;44.412;11.918;2023-03-04T08:45:55;7.30;99.90
43049;DHT22;28673;44.412;11.918;2023-03-04T08:48:22;7.40;99.90
43049;DHT22;28673;44.412;11.918;2023-03-04T08:50:48;7.50;99.90
43049;DHT22;28673;44.412;11.918;2023-03-04T08:53:16;7.60;99.90
43049;DHT22;28673;44.412;11.918;2023-03-04T08:55:42;7.80;99.90
43049;DHT22;28673;44.412;11.918;2023-03-04T08:58:08;7.90;99.90
43049;DHT22;28673;44.412;11.918;2023-03-04T09:00:36;8.00;99.90
43049;DHT22;28673;44.412;11.918;2023-03-04T09:03:02;8.00;99.90
43049;DHT22;28673;44.412;11.918;2023-03-04T09:05:29;8.20;99.90
43049;DHT22;28673;44.412;11.918;2023-03-04T09:07:55;8.30;99.90
43049;DHT22;28673;44.412;11.918;2023-03-04T09:10:22;8.40;99.90
43049;DHT22;28673;44.412;11.918;2023-03-04T09:12:48;8.50;99.90
43049;DHT22;28673;44.412;11.918;2023-03-04T09:15:14;8.70;99.90
43049;DHT22;28673;44.412;11.918;2023-03-04T09:17:40;8.80;99.90
43049;DHT22;28673;44.412;11.918;2023-03-04T09:20:09;9.00;99.90
43049;DHT22;28673;44.412;11.918;2023-03-04T09:22:39;9.10;99.90
43049;DHT22;28673;44.412;11.918;2023-03-04T09:25:06;9.30;99.90
43049;DHT22;28673;44.412;11.918;2023-03-04T09:27:32;9.40;99.90
43049;DHT22;28673;44.412;11.918;2023-03-04T09:29:58;9.60;99.90
43049;DHT22;28673;44.412;11.918;2023-03-04T09:32:24;9.80;99.90
43049;DHT22;28673;44.412;11.918;2023-03-04T09:34:50;10.00;99.90
43049;DHT22;28673;44.412;11.918;2023-03-04T09:37:16;10.30;99.90
43049;DHT22;28673;44.412;11.918;2023-03-04T09:39:42;10.40;99.90
43049;DHT22;28673;44.412;11.918;2023-03-04T09:42:10;10.60;99.90
43049;DHT22;28673;44.412;11.918;2023-03-04T09:44:42;10.80;99.90
43049;DHT22;28673;44.412;11.918;2023-03-04T09:47:13;11.00;99.90
43049;DHT22;28673;44.412;11.918;2023-03-04T09:49:44;11.20;99.90
43049;DHT22;28673;44.412;11.918;2023-03-04T09:55:26;11.60;99.90
43049;DHT22;28673;44.412;11.918;2023-03-04T10:05:54;12.40;99.90
43049;DHT22;28673;44.412;11.918;2023-03-04T10:11:47;12.60;99.90
43049;DHT22;28673;44.412;11.918;2023-03-04T10:17:37;12.90;99.90
43049;DHT22;28673;44.412;11.918;2023-03-04T10:20:14;13.10;99.90
43049;DHT22;28673;44.412;11.918;2023-03-04T10:23:31;13.30;99.90
43049;DHT22;28673;44.412;11.918;2023-03-04T10:25:40;13.40;99.90
43049;DHT22;28673;44.412;11.918;2023-03-04T10:28:18;13.60;99.90
43049;DHT22;28673;44.412;11.918;2023-03-04T10:30:59;13.60;99.90
43049;DHT22;28673;44.412;11.918;2023-03-04T10:33:35;13.70;99.90
43049;DHT22;28673;44.412;11.918;2023-03-04T10:38:42;13.90;99.90
43049;DHT22;28673;44.412;11.918;2023-03-04T10:41:20;14.10;99.90
43049;DHT22;28673;44.412;11.918;2023-03-04T10:44:02;14.20;99.90
43049;DHT22;28673;44.412;11.918;2023-03-04T10:46:29;14.40;99.90
43049;DHT22;28673;44.412;11.918;2023-03-04T10:48:56;14.50;99.90
43049;DHT22;28673;44.412;11.918;2023-03-04T10:51:25;14.60;99.90
43049;DHT22;28673;44.412;11.918;2023-03-04T10:53:57;14.70;99.90
43049;DHT22;28673;44.412;11.918;2023-03-04T10:56:42;14.80;99.90
43049;DHT22;28673;44.412;11.918;2023-03-04T11:02:34;14.90;99.90
43049;DHT22;28673;44.412;11.918;2023-03-04T11:05:18;14.80;99.90
43049;DHT22;28673;44.412;11.918;2023-03-04T11:07:50;14.80;99.90
43049;DHT22;28673;44.412;11.918;2023-03-04T11:10:21;14.90;99.90
43049;DHT22;28673;44.412;11.918;2023-03-04T11:15:58;15.30;99.90
43049;DHT22;28673;44.412;11.918;2023-03-04T11:18:41;15.50;99.90
43049;DHT22;28673;44.412;11.918;2023-03-04T11:21:17;15.60;99.90
43049;DHT22;28673;44.412;11.918;2023-03-04T11:26:30;15.90;99.90
43049;DHT22;28673;44.412;11.918;2023-03-04T11:29:47;15.90;99.90
43049;DHT22;28673;44.412;11.918;2023-03-04T11:32:17;16.00;99.90
43049;DHT22;28673;44.412;11.918;2023-03-04T11:38:09;16.20;99.90
43049;DHT22;28673;44.412;11.918;2023-03-04T11:40:38;16.30;98.80
43049;DHT22;28673;44.412;11.918;2023-03-04T11:43:25;16.40;99.90
43049;DHT22;28673;44.412;11.918;2023-03-04T11:48:48;16.70;99.90
43049;DHT22;28673;44.412;11.918;2023-03-04T11:51:26;16.90;99.90
43049;DHT22;28673;44.412;11.918;2023-03-04T11:54:16;17.00;99.90
43049;DHT22;28673;44.412;11.918;2023-03-04T11:56:55;17.10;99.50
43049;DHT22;28673;44.412;11.918;2023-03-04T12:02:11;17.10;99.90
43049;DHT22;28673;44.412;11.918;2023-03-04T12:07:51;17.40;99.70
43049;DHT22;28673;44.412;11.918;2023-03-04T12:16:33;17.80;98.20
43049;DHT22;28673;44.412;11.918;2023-03-04T12:19:21;17.90;98.90
43049;DHT22;28673;44.412;11.918;2023-03-04T12:35:32;18.10;98.10
43049;DHT22;28673;44.412;11.918;2023-03-04T12:43:46;18.60;96.80
43049;DHT22;28673;44.412;11.918;2023-03-04T12:46:39;18.80;98.00
43049;DHT22;28673;44.412;11.918;2023-03-04T12:55:11;19.10;95.90
43049;DHT22;28673;44.412;11.918;2023-03-04T12:57:38;19.10;96.30
43049;DHT22;28673;44.412;11.918;2023-03-04T13:10:49;19.10;93.30
43049;DHT22;28673;44.412;11.918;2023-03-04T13:13:38;19.00;95.30
43049;DHT22;28673;44.412;11.918;2023-03-04T13:18:42;19.20;95.50
43049;DHT22;28673;44.412;11.918;2023-03-04T13:23:38;19.30;95.30
43049;DHT22;28673;44.412;11.918;2023-03-04T13:26:17;19.40;92.30
43049;DHT22;28673;44.412;11.918;2023-03-04T13:28:45;19.30;93.20
43049;DHT22;28673;44.412;11.918;2023-03-04T13:31:17;19.10;91.40
43049;DHT22;28673;44.412;11.918;2023-03-04T13:33:48;18.90;91.10
43049;DHT22;28673;44.412;11.918;2023-03-04T13:41:33;19.00;92.30
43049;DHT22;28673;44.412;11.918;2023-03-04T13:47:14;19.10;92.60
43049;DHT22;28673;44.412;11.918;2023-03-04T13:49:41;19.20;93.40
43049;DHT22;28673;44.412;11.918;2023-03-04T13:52:40;19.30;92.40
43049;DHT22;28673;44.412;11.918;2023-03-04T13:55:37;19.20;92.70
43049;DHT22;28673;44.412;11.918;2023-03-04T13:58:19;19.20;92.40
43049;DHT22;28673;44.412;11.918;2023-03-04T14:00:50;19.30;92.80
43049;DHT22;28673;44.412;11.918;2023-03-04T14:03:26;19.40;92.90
43049;DHT22;28673;44.412;11.918;2023-03-04T14:08:35;19.40;91.30
43049;DHT22;28673;44.412;11.918;2023-03-04T14:11:00;19.40;92.70
43049;DHT22;28673;44.412;11.918;2023-03-04T14:13:26;19.40;92.50
43049;DHT22;28673;44.412;11.918;2023-03-04T14:15:55;19.40;92.70
43049;DHT22;28673;44.412;11.918;2023-03-04T14:18:21;19.40;92.50
43049;DHT22;28673;44.412;11.918;2023-03-04T14:20:50;19.30;92.50
43049;DHT22;28673;44.412;11.918;2023-03-04T14:23:27;19.30;92.20
43049;DHT22;28673;44.412;11.918;2023-03-04T14:26:11;19.20;91.80
43049;DHT22;28673;44.412;11.918;2023-03-04T14:28:46;19.20;91.20
43049;DHT22;28673;44.412;11.918;2023-03-04T14:31:16;19.10;89.90
43049;DHT22;28673;44.412;11.918;2023-03-04T14:33:48;18.90;90.00
43049;DHT22;28673;44.412;11.918;2023-03-04T14:36:18;18.70;90.20
43049;DHT22;28673;44.412;11.918;2023-03-04T14:38:50;18.60;92.00
43049;DHT22;28673;44.412;11.918;2023-03-04T14:41:23;18.60;92.00
43049;DHT22;28673;44.412;11.918;2023-03-04T14:46:25;18.80;91.80
43049;DHT22;28673;44.412;11.918;2023-03-04T14:48:54;18.80;91.50
43049;DHT22;28673;44.412;11.918;2023-03-04T14:51:40;18.80;91.00
43049;DHT22;28673;44.412;11.918;2023-03-04T14:56:54;18.90;91.50
43049;DHT22;28673;44.412;11.918;2023-03-04T14:59:35;18.90;91.60
43049;DHT22;28673;44.412;11.918;2023-03-04T15:04:42;18.50;90.40
43049;DHT22;28673;44.412;11.918;2023-03-04T15:07:20;18.30;91.50
43049;DHT22;28673;44.412;11.918;2023-03-04T15:09:54;18.30;90.60
43049;DHT22;28673;44.412;11.918;2023-03-04T15:12:29;18.20;91.50
43049;DHT22;28673;44.412;11.918;2023-03-04T15:15:01;18.10;91.10
43049;DHT22;28673;44.412;11.918;2023-03-04T15:17:36;18.10;91.30
43049;DHT22;28673;44.412;11.918;2023-03-04T15:20:26;18.00;91.80
43049;DHT22;28673;44.412;11.918;2023-03-04T15:25:19;18.00;91.80
43049;DHT22;28673;44.412;11.918;2023-03-04T15:27:46;18.10;92.30
43049;DHT22;28673;44.412;11.918;2023-03-04T15:30:18;18.10;92.40
43049;DHT22;28673;44.412;11.918;2023-03-04T15:32:44;18.10;91.80
43049;DHT22;28673;44.412;11.918;2023-03-04T15:35:15;18.10;92.20
43049;DHT22;28673;44.412;11.918;2023-03-04T15:37:41;18.10;92.40
43049;DHT22;28673;44.412;11.918;2023-03-04T15:40:20;18.10;92.00
43049;DHT22;28673;44.412;11.918;2023-03-04T15:42:47;18.00;92.10
43049;DHT22;28673;44.412;11.918;2023-03-04T15:45:37;18.00;92.10
43049;DHT22;28673;44.412;11.918;2023-03-04T15:48:05;17.80;91.80
43049;DHT22;28673;44.412;11.918;2023-03-04T15:50:36;17.70;92.00
43049;DHT22;28673;44.412;11.918;2023-03-04T15:53:06;17.60;92.10
43049;DHT22;28673;44.412;11.918;2023-03-04T15:55:32;17.40;92.10
43049;DHT22;28673;44.412;11.918;2023-03-04T15:58:00;17.30;92.30
43049;DHT22;28673;44.412;11.918;2023-03-04T16:00:26;17.10;92.30
43049;DHT22;28673;44.412;11.918;2023-03-04T16:02:52;17.00;92.60
43049;DHT22;28673;44.412;11.918;2023-03-04T16:05:18;16.80;92.70
43049;DHT22;28673;44.412;11.918;2023-03-04T16:07:48;16.70;92.80
43049;DHT22;28673;44.412;11.918;2023-03-04T16:12:49;16.30;92.90
43049;DHT22;28673;44.412;11.918;2023-03-04T16:15:18;16.20;93.00
43049;DHT22;28673;44.412;11.918;2023-03-04T16:17:45;16.00;93.20
43049;DHT22;28673;44.412;11.918;2023-03-04T16:20:13;15.90;93.20
43049;DHT22;28673;44.412;11.918;2023-03-04T16:22:41;15.80;93.30
43049;DHT22;28673;44.412;11.918;2023-03-04T16:25:12;15.60;93.30
43049;DHT22;28673;44.412;11.918;2023-03-04T16:27:39;15.50;93.30
43049;DHT22;28673;44.412;11.918;2023-03-04T16:30:15;15.30;93.30
43049;DHT22;28673;44.412;11.918;2023-03-04T16:32:41;15.20;93.60
43049;DHT22;28673;44.412;11.918;2023-03-04T16:35:08;15.00;93.70
43049;DHT22;28673;44.412;11.918;2023-03-04T16:37:33;14.90;93.90
43049;DHT22;28673;44.412;11.918;2023-03-04T16:40:00;14.80;93.90
43049;DHT22;28673;44.412;11.918;2023-03-04T16:42:26;14.70;94.10
43049;DHT22;28673;44.412;11.918;2023-03-04T16:44:52;14.50;94.20
43049;DHT22;28673;44.412;11.918;2023-03-04T16:47:19;14.40;94.30
43049;DHT22;28673;44.412;11.918;2023-03-04T16:49:48;14.30;94.50
43049;DHT22;28673;44.412;11.918;2023-03-04T16:52:30;14.20;94.60
43049;DHT22;28673;44.412;11.918;2023-03-04T16:54:57;14.00;94.70
43049;DHT22;28673;44.412;11.918;2023-03-04T16:57:24;13.90;94.90
43049;DHT22;28673;44.412;11.918;2023-03-04T16:59:53;13.70;95.00
43049;DHT22;28673;44.412;11.918;2023-03-04T17:02:21;13.60;95.40
43049;DHT22;28673;44.412;11.918;2023-03-04T17:04:49;13.50;95.40
43049;DHT22;28673;44.412;11.918;2023-03-04T17:07:15;13.30;95.50
43049;DHT22;28673;44.412;11.918;2023-03-04T17:09:41;13.20;95.70
43049;DHT22;28673;44.412;11.918;2023-03-04T17:12:10;13.10;95.80
43049;DHT22;28673;44.412;11.918;2023-03-04T17:14:37;13.00;95.90
43049;DHT22;28673;44.412;11.918;2023-03-04T17:17:04;12.90;96.10
43049;DHT22;28673;44.412;11.918;2023-03-04T17:19:31;12.80;96.30
43049;DHT22;28673;44.412;11.918;2023-03-04T17:21:59;12.60;96.70
43049;DHT22;28673;44.412;11.918;2023-03-04T17:24:25;12.60;96.90
43049;DHT22;28673;44.412;11.918;2023-03-04T17:26:52;12.40;97.20
43049;DHT22;28673;44.412;11.918;2023-03-04T17:29:18;12.30;97.40
43049;DHT22;28673;44.412;11.918;2023-03-04T17:31:44;12.20;97.50
43049;DHT22;28673;44.412;11.918;2023-03-04T17:34:11;12.10;97.70